Lincoln Park, Michigan
Current Conditions -  °F | °C
As of 10:53 PM on Thursday 18 Dec 2014 (Local Time) from KDTW Reporting Station
Freezing Drizzle Freezing Drizzle  
Wind Chill: 24°   Ceiling: 1700
Heat Index: 31°   Visibility: 6mi
Dew Point: 27°   Wind: 7mph
Humidity: 85%   Direction: 320°NW
Pressure: 30.19"   Gusts: NA
Location:  42.25°N, 83.18°W
Report Text: KDTW 190353Z 32006KT 6SM -FZDZ BR SCT011 OVC017 M01/M03 A3019 RMK AO2 FZDZE33B49SNE0254 SLP231 P0000 T10061028
Loading
Personal Weather Stations






























Interactive Weather Map New forecast layout! Learn more

10-Day Weather Forecast

Advertisements
Track Severe Weather on mobile